RYR601 EGKK-LHBP
Flight info
| Callsign | RYR601 |
|---|---|
| Flight time | N/A |
| Altitude | 35000 |
| Route | ODVIK Y311 DVR UL9 KONAN DCT KOK UL607 REMBA DCT MATUG DCT GUBAX DCT BARSU DCT MOOCE DCT RUDNO DCT DEXIT DCT ABLOM DCT XENAK/N0409F230 L175 ANEXA |
| Aircraft | B738/M-SDE2E3FGHIRWXY/LB1 |
Departure
| Time | 2026-05-04 11:10 |
|---|---|
| Airport | London Gatwick Airport (EGKK) |
Arrival
| Time | N/A |
|---|---|
| Airport | Budapest Liszt Ferenc International Airport (LHBP) |
| Time | Latitude | Longitude | Altitude | Speed | Heading |
|---|---|---|---|---|---|
| 2026-05-04 10:37 | 51.16119 | -0.18027 | 191 ft | 0 kts | 79° |
| 2026-05-04 10:47 | 51.16119 | -0.18028 | 191 ft | 0 kts | 79° |
| 2026-05-04 10:47 | 51.16116 | -0.18048 | 191 ft | 2 kts | 79° |
| 2026-05-04 10:47 | 51.16113 | -0.18071 | 190 ft | 2 kts | 79° |
| 2026-05-04 10:47 | 51.16110 | -0.18095 | 190 ft | 2 kts | 79° |
| 2026-05-04 10:49 | 51.16124 | -0.18180 | 188 ft | 0 kts | 168° |
| 2026-05-04 10:52 | 51.16112 | -0.18176 | 188 ft | 3 kts | 165° |
| 2026-05-04 10:54 | 51.15694 | -0.18059 | 191 ft | 6 kts | 225° |
| 2026-05-04 10:54 | 51.15669 | -0.18168 | 188 ft | 15 kts | 258° |
| 2026-05-04 10:56 | 51.15170 | -0.18391 | 195 ft | 10 kts | 263° |
| 2026-05-04 10:56 | 51.15157 | -0.18507 | 195 ft | 10 kts | 257° |
| 2026-05-04 10:56 | 51.15135 | -0.18676 | 195 ft | 24 kts | 257° |
| 2026-05-04 10:57 | 51.15097 | -0.18956 | 195 ft | 25 kts | 257° |
| 2026-05-04 10:57 | 51.15058 | -0.19235 | 194 ft | 25 kts | 257° |
| 2026-05-04 10:57 | 51.15018 | -0.19528 | 192 ft | 27 kts | 257° |
| 2026-05-04 10:57 | 51.14985 | -0.19769 | 194 ft | 19 kts | 258° |
| 2026-05-04 10:58 | 51.14949 | -0.20036 | 195 ft | 27 kts | 257° |
| 2026-05-04 10:58 | 51.14910 | -0.20314 | 197 ft | 22 kts | 258° |
| 2026-05-04 10:58 | 51.14873 | -0.20583 | 195 ft | 27 kts | 257° |
| 2026-05-04 10:58 | 51.14833 | -0.20873 | 196 ft | 25 kts | 258° |
| 2026-05-04 10:59 | 51.14800 | -0.21110 | 198 ft | 19 kts | 254° |
| 2026-05-04 10:59 | 51.14771 | -0.21270 | 198 ft | 9 kts | 259° |
| 2026-05-04 10:59 | 51.14764 | -0.21314 | 199 ft | 0 kts | 258° |
| 2026-05-04 10:59 | 51.14761 | -0.21341 | 200 ft | 0 kts | 254° |
| 2026-05-04 11:00 | 51.14760 | -0.21344 | 200 ft | 4 kts | 252° |
| 2026-05-04 11:01 | 51.14616 | -0.21326 | 201 ft | 0 kts | 168° |
| 2026-05-04 11:06 | 51.14615 | -0.21326 | 201 ft | 1 kts | 168° |
| 2026-05-04 11:08 | 51.14526 | -0.21124 | 198 ft | 6 kts | 75° |
| 2026-05-04 11:10 | 51.16053 | -0.10476 | 1992 ft | 193 kts | 77° |
| 2026-05-04 11:12 | 51.16757 | 0.07015 | 5101 ft | 247 kts | 91° |
| 2026-05-04 11:12 | 51.16705 | 0.09742 | 5910 ft | 249 kts | 91° |
| 2026-05-04 11:12 | 51.16653 | 0.12503 | 6673 ft | 253 kts | 92° |
| 2026-05-04 11:12 | 51.16601 | 0.15305 | 7426 ft | 256 kts | 91° |
| 2026-05-04 11:13 | 51.16583 | 0.18154 | 8164 ft | 260 kts | 90° |
| 2026-05-04 11:13 | 51.16593 | 0.21032 | 8895 ft | 264 kts | 90° |
| 2026-05-04 11:13 | 51.16608 | 0.23968 | 9630 ft | 267 kts | 90° |
| 2026-05-04 11:13 | 51.16619 | 0.26929 | 10328 ft | 270 kts | 91° |
| 2026-05-04 11:14 | 51.16621 | 0.27932 | 10556 ft | 272 kts | 91° |
| 2026-05-04 11:16 | 51.16595 | 0.58662 | 16837 ft | 298 kts | 91° |
| 2026-05-04 11:16 | 51.16588 | 0.61994 | 17406 ft | 302 kts | 91° |
| 2026-05-04 11:16 | 51.16582 | 0.65304 | 18001 ft | 303 kts | 92° |
| 2026-05-04 11:17 | 51.16576 | 0.68676 | 18563 ft | 306 kts | 92° |
| 2026-05-04 11:17 | 51.16568 | 0.72068 | 19070 ft | 310 kts | 92° |
| 2026-05-04 11:19 | 51.16493 | 0.97003 | 22457 ft | 334 kts | 93° |
| 2026-05-04 11:19 | 51.16479 | 1.00728 | 22897 ft | 338 kts | 93° |
| 2026-05-04 11:19 | 51.16465 | 1.04519 | 23350 ft | 340 kts | 93° |
| 2026-05-04 11:19 | 51.16450 | 1.08302 | 23796 ft | 343 kts | 93° |
| 2026-05-04 11:20 | 51.16432 | 1.12083 | 24201 ft | 346 kts | 94° |
| 2026-05-04 11:20 | 51.16412 | 1.15967 | 24644 ft | 348 kts | 94° |
| 2026-05-04 11:20 | 51.16389 | 1.19829 | 24949 ft | 355 kts | 94° |
| 2026-05-04 11:20 | 51.16362 | 1.23861 | 25048 ft | 367 kts | 94° |
| 2026-05-04 11:22 | 51.15555 | 1.52452 | 28089 ft | 367 kts | 99° |
| 2026-05-04 11:22 | 51.15335 | 1.56474 | 28484 ft | 366 kts | 99° |
| 2026-05-04 11:23 | 51.15118 | 1.60533 | 28880 ft | 365 kts | 99° |
| 2026-05-04 11:23 | 51.14908 | 1.64565 | 29302 ft | 363 kts | 99° |
| 2026-05-04 11:24 | 51.13681 | 1.88483 | 31453 ft | 359 kts | 100° |
| 2026-05-04 11:25 | 51.13476 | 1.92403 | 31745 ft | 359 kts | 101° |
| 2026-05-04 11:25 | 51.13272 | 1.96293 | 32034 ft | 358 kts | 100° |
| 2026-05-04 11:25 | 51.13062 | 2.00279 | 32328 ft | 357 kts | 100° |
| 2026-05-04 11:26 | 51.12647 | 2.08102 | 32768 ft | 360 kts | 100° |
| 2026-05-04 11:27 | 51.11089 | 2.36644 | 33873 ft | 378 kts | 100° |
| 2026-05-04 11:28 | 51.10619 | 2.44978 | 33987 ft | 388 kts | 100° |
| 2026-05-04 11:28 | 51.10125 | 2.53613 | 34082 ft | 400 kts | 100° |
| 2026-05-04 11:29 | 51.09581 | 2.62446 | 34157 ft | 410 kts | 102° |
| 2026-05-04 11:29 | 51.08456 | 2.71246 | 34251 ft | 417 kts | 110° |
| 2026-05-04 11:31 | 51.02560 | 3.03141 | 34585 ft | 458 kts | 111° |
| 2026-05-04 11:33 | 50.96281 | 3.37003 | 34968 ft | 463 kts | 111° |
| 2026-05-04 11:33 | 50.94458 | 3.46739 | 34969 ft | 463 kts | 111° |
| 2026-05-04 11:34 | 50.92644 | 3.56366 | 34968 ft | 462 kts | 111° |
| 2026-05-04 11:34 | 50.90813 | 3.66029 | 34970 ft | 462 kts | 112° |
| 2026-05-04 11:35 | 50.89075 | 3.75082 | 34968 ft | 461 kts | 112° |
| 2026-05-04 11:35 | 50.87157 | 3.84980 | 34969 ft | 464 kts | 112° |
| 2026-05-04 11:36 | 50.85296 | 3.94551 | 34971 ft | 462 kts | 112° |
| 2026-05-04 11:36 | 50.83400 | 4.04246 | 34974 ft | 463 kts | 112° |
| 2026-05-04 11:37 | 50.81544 | 4.13693 | 34977 ft | 463 kts | 113° |
| 2026-05-04 11:37 | 50.79646 | 4.23317 | 34977 ft | 461 kts | 113° |
| 2026-05-04 11:38 | 50.77770 | 4.32775 | 34982 ft | 462 kts | 113° |
| 2026-05-04 11:38 | 50.75850 | 4.42406 | 34982 ft | 461 kts | 113° |
| 2026-05-04 11:39 | 50.73951 | 4.51884 | 34979 ft | 463 kts | 113° |